createdAt,value
2022-12-18T00:02:48.993Z,9.57
2022-12-18T00:05:51.903Z,9.38
2022-12-18T00:08:57.271Z,9.45
2022-12-18T00:11:59.133Z,9.10
2022-12-18T00:15:01.118Z,9.27
2022-12-18T00:18:02.803Z,8.82
2022-12-18T00:21:09.258Z,9.80
2022-12-18T00:24:12.169Z,8.90
2022-12-18T00:27:13.767Z,9.32
2022-12-18T00:30:15.870Z,8.75
2022-12-18T00:33:17.528Z,9.55
2022-12-18T00:36:22.777Z,9.43
2022-12-18T00:39:27.234Z,9.43
2022-12-18T00:42:47.871Z,9.18
2022-12-18T00:45:49.869Z,9.05
2022-12-18T00:48:51.681Z,8.02
2022-12-18T00:51:59.142Z,9.48
2022-12-18T00:55:05.957Z,8.30
2022-12-18T00:58:09.215Z,8.45
2022-12-18T01:01:13.871Z,8.00
2022-12-18T01:04:15.962Z,8.48
2022-12-18T01:07:20.650Z,8.40
2022-12-18T01:10:22.388Z,8.40
2022-12-18T01:13:24.209Z,8.38
2022-12-18T01:16:25.929Z,8.50
2022-12-18T01:19:27.840Z,8.20
2022-12-18T01:22:30.178Z,7.43
2022-12-18T01:25:31.963Z,8.65
2022-12-18T01:28:33.753Z,8.32
2022-12-18T01:31:35.672Z,8.93
2022-12-18T01:34:38.699Z,7.93
2022-12-18T01:37:40.627Z,8.98
2022-12-18T01:40:42.406Z,7.90
2022-12-18T01:43:59.426Z,8.18
2022-12-18T01:47:01.576Z,8.32
2022-12-18T01:50:10.323Z,7.53
2022-12-18T01:53:20.041Z,8.88
2022-12-18T01:56:23.281Z,7.20
2022-12-18T01:59:25.235Z,8.05
2022-12-18T02:02:31.481Z,8.07
2022-12-18T02:05:50.173Z,7.45
2022-12-18T02:09:03.767Z,8.90
2022-12-18T02:12:54.041Z,8.05
2022-12-18T02:16:14.784Z,8.35
2022-12-18T02:19:54.106Z,8.47
2022-12-18T02:23:20.687Z,7.97
2022-12-18T02:26:38.991Z,7.78
2022-12-18T02:29:57.661Z,7.90
2022-12-18T02:33:03.014Z,8.48
2022-12-18T02:36:06.956Z,8.45
2022-12-18T02:39:12.138Z,8.32
2022-12-18T02:42:20.295Z,8.38
2022-12-18T02:45:23.247Z,8.50
2022-12-18T02:48:36.324Z,9.13
2022-12-18T02:51:46.779Z,8.32
2022-12-18T02:54:53.539Z,8.25
2022-12-18T02:57:59.455Z,8.77
2022-12-18T03:01:44.309Z,7.82
2022-12-18T03:05:09.966Z,8.30
2022-12-18T03:08:20.086Z,9.10
2022-12-18T03:11:43.680Z,8.25
2022-12-18T03:14:50.431Z,8.75
2022-12-18T03:18:22.694Z,9.18
2022-12-18T03:21:49.999Z,8.75
2022-12-18T03:24:54.994Z,8.82
2022-12-18T03:27:59.879Z,9.15
2022-12-18T03:31:05.360Z,8.65
2022-12-18T03:34:12.612Z,8.40
2022-12-18T03:37:18.932Z,8.55
2022-12-18T03:40:30.963Z,8.30
2022-12-18T03:44:00.206Z,8.63
2022-12-18T03:47:17.095Z,8.77
2022-12-18T03:50:27.166Z,7.22
2022-12-18T03:53:47.058Z,7.53
2022-12-18T03:56:57.054Z,7.63
2022-12-18T04:00:04.574Z,7.57
2022-12-18T04:03:17.877Z,7.07
2022-12-18T04:06:23.382Z,8.23
2022-12-18T04:09:27.161Z,8.18
2022-12-18T04:12:30.811Z,8.15
2022-12-18T04:15:36.417Z,7.63
2022-12-18T04:18:40.211Z,8.02
2022-12-18T04:21:43.705Z,8.25
2022-12-18T04:24:47.368Z,8.18
2022-12-18T04:27:57.400Z,7.53
2022-12-18T04:30:59.182Z,7.90
2022-12-18T04:34:01.037Z,8.02
2022-12-18T04:37:05.354Z,7.90
2022-12-18T04:40:11.296Z,7.30
2022-12-18T04:43:17.629Z,7.97
2022-12-18T04:46:19.529Z,7.40
2022-12-18T04:49:21.372Z,7.72
2022-12-18T04:52:28.790Z,7.15
2022-12-18T04:55:31.361Z,7.43
2022-12-18T04:58:33.384Z,7.88
2022-12-18T05:01:35.565Z,7.20
2022-12-18T05:04:38.620Z,7.80
2022-12-18T05:07:40.326Z,7.07
2022-12-18T05:10:43.227Z,7.75
2022-12-18T05:13:45.738Z,6.93
2022-12-18T05:16:47.573Z,7.55
2022-12-18T05:19:49.224Z,6.95
2022-12-18T05:22:51.708Z,7.25
2022-12-18T05:25:54.504Z,7.22
2022-12-18T05:28:56.342Z,6.35
2022-12-18T05:31:57.994Z,7.53
2022-12-18T05:34:59.812Z,6.90
2022-12-18T05:38:01.599Z,7.05
2022-12-18T05:41:04.191Z,7.10
2022-12-18T05:44:06.140Z,7.35
2022-12-18T05:47:09.116Z,6.53
2022-12-18T05:50:10.921Z,6.78
2022-12-18T05:53:14.257Z,7.78
2022-12-18T05:56:19.432Z,6.95
2022-12-18T05:59:21.375Z,6.82
2022-12-18T06:02:23.472Z,7.35
2022-12-18T06:05:25.371Z,6.55
2022-12-18T06:08:27.316Z,7.07
2022-12-18T06:11:28.940Z,6.88
2022-12-18T06:14:30.915Z,6.72
2022-12-18T06:17:33.851Z,6.88
2022-12-18T06:20:37.676Z,6.70
2022-12-18T06:23:39.884Z,7.00
2022-12-18T06:26:42.290Z,6.65
2022-12-18T06:29:48.160Z,7.57
2022-12-18T06:32:56.368Z,7.28
2022-12-18T06:36:06.719Z,6.60
2022-12-18T06:39:08.811Z,7.50
2022-12-18T06:42:11.106Z,6.60
2022-12-18T06:45:12.728Z,6.43
2022-12-18T06:48:14.521Z,5.95
2022-12-18T06:51:25.492Z,6.53
2022-12-18T06:57:28.818Z,6.80
2022-12-18T07:00:30.586Z,6.40
2022-12-18T07:03:32.699Z,6.68
2022-12-18T07:06:34.448Z,6.90
2022-12-18T07:09:36.465Z,6.72
2022-12-18T07:12:38.190Z,7.07
2022-12-18T07:15:39.747Z,6.63
2022-12-18T07:18:41.628Z,6.55
2022-12-18T07:21:43.554Z,7.28
2022-12-18T07:24:45.413Z,6.95
2022-12-18T07:27:47.043Z,7.13
2022-12-18T07:30:48.786Z,6.93
2022-12-18T07:33:51.473Z,6.32
2022-12-18T07:36:53.083Z,7.35
2022-12-18T07:39:54.715Z,7.28
2022-12-18T07:42:56.460Z,7.72
2022-12-18T07:45:58.110Z,6.57
2022-12-18T07:48:59.916Z,6.78
2022-12-18T07:52:02.666Z,7.70
2022-12-18T07:55:05.048Z,7.35
2022-12-18T07:58:07.097Z,7.10
2022-12-18T08:01:11.793Z,6.60
2022-12-18T08:04:13.486Z,7.25
2022-12-18T08:07:15.487Z,7.15
2022-12-18T08:10:18.001Z,6.95
2022-12-18T08:13:19.608Z,6.90
2022-12-18T08:16:22.826Z,6.97
2022-12-18T08:19:24.479Z,7.75
2022-12-18T08:22:26.289Z,6.50
2022-12-18T08:25:28.162Z,6.93
2022-12-18T08:28:29.895Z,7.10
2022-12-18T08:31:32.322Z,7.43
2022-12-18T08:34:34.306Z,6.90
2022-12-18T08:37:36.025Z,6.25
2022-12-18T08:40:40.308Z,5.80
2022-12-18T08:44:00.966Z,6.53
2022-12-18T08:47:03.293Z,8.13
2022-12-18T08:50:05.222Z,8.15
2022-12-18T08:53:07.255Z,6.82
2022-12-18T08:56:09.074Z,7.45
2022-12-18T08:59:18.787Z,6.57
2022-12-18T09:02:21.438Z,6.78
2022-12-18T09:05:23.508Z,6.05
2022-12-18T09:08:25.554Z,6.45
2022-12-18T09:11:28.889Z,6.68
2022-12-18T09:14:31.216Z,6.93
2022-12-18T09:17:32.830Z,7.60
2022-12-18T09:20:34.606Z,6.78
2022-12-18T09:23:36.318Z,7.38
2022-12-18T09:26:38.683Z,6.55
2022-12-18T09:29:41.624Z,8.35
2022-12-18T09:32:43.259Z,6.95
2022-12-18T09:35:46.424Z,6.18
2022-12-18T09:38:48.148Z,6.40
2022-12-18T09:41:55.804Z,5.47
2022-12-18T09:44:59.491Z,5.18
2022-12-18T09:48:01.501Z,5.05
2022-12-18T09:51:15.917Z,4.32
2022-12-18T09:54:28.163Z,4.75
2022-12-18T09:57:34.611Z,4.50
2022-12-18T10:00:36.832Z,4.75
2022-12-18T10:03:38.699Z,4.57
2022-12-18T10:06:46.730Z,4.68
2022-12-18T10:10:23.906Z,5.25
2022-12-18T10:13:52.911Z,4.93
2022-12-18T10:17:03.686Z,4.22
2022-12-18T10:20:24.433Z,4.13
2022-12-18T10:23:26.222Z,4.55
2022-12-18T10:26:27.792Z,4.78
2022-12-18T10:29:29.786Z,4.32
2022-12-18T10:32:31.819Z,5.47
2022-12-18T10:35:34.046Z,3.90
2022-12-18T10:38:36.012Z,4.40
2022-12-18T10:41:38.764Z,4.03
2022-12-18T10:44:40.482Z,4.15
2022-12-18T10:47:49.567Z,5.43
2022-12-18T10:54:25.464Z,4.38
2022-12-18T10:57:27.172Z,4.38
2022-12-18T11:00:31.319Z,4.05
2022-12-18T11:04:06.744Z,4.35
2022-12-18T11:07:09.497Z,3.75
2022-12-18T11:10:18.587Z,3.78
2022-12-18T11:13:23.789Z,4.03
2022-12-18T11:16:25.979Z,3.55
2022-12-18T11:19:41.597Z,3.60
2022-12-18T11:22:43.771Z,4.07
2022-12-18T11:25:54.907Z,4.05
2022-12-18T11:29:19.219Z,4.22
2022-12-18T11:32:38.893Z,4.15
2022-12-18T11:35:51.096Z,4.03
2022-12-18T11:38:57.766Z,3.15
2022-12-18T11:42:11.718Z,3.63
2022-12-18T11:45:13.924Z,3.67
2022-12-18T11:48:57.125Z,3.30
2022-12-18T11:52:20.669Z,3.55
2022-12-18T11:55:49.531Z,3.60
2022-12-18T11:59:02.141Z,3.95
2022-12-18T12:02:31.977Z,4.57
2022-12-18T12:09:01.632Z,3.72
2022-12-18T12:12:25.074Z,4.15
2022-12-18T12:15:37.041Z,3.92
2022-12-18T12:18:47.906Z,3.88
2022-12-18T12:21:54.354Z,4.20
2022-12-18T12:25:18.732Z,3.65
2022-12-18T12:29:04.325Z,3.97
2022-12-18T12:32:21.220Z,3.80
2022-12-18T12:35:54.957Z,3.22
2022-12-18T12:39:00.944Z,3.38
2022-12-18T12:42:24.170Z,3.80
2022-12-18T12:45:52.026Z,4.00
2022-12-18T12:48:58.795Z,3.85
2022-12-18T12:52:13.655Z,3.47
2022-12-18T12:58:54.974Z,3.55
2022-12-18T13:02:21.035Z,2.70
2022-12-18T13:05:50.395Z,2.30
2022-12-18T13:08:56.997Z,2.10
2022-12-18T13:12:30.632Z,2.72
2022-12-18T13:13:43.747Z,3.30
2022-12-18T13:15:40.634Z,2.60
2022-12-18T13:18:52.931Z,2.40
2022-12-18T13:21:56.943Z,2.17
2022-12-18T13:24:58.816Z,2.28
2022-12-18T13:28:15.127Z,2.80
2022-12-18T13:31:32.220Z,2.30
2022-12-18T13:34:34.058Z,3.00
2022-12-18T13:37:52.147Z,2.80
2022-12-18T13:41:00.463Z,3.95
2022-12-18T13:44:41.631Z,4.47
2022-12-18T13:47:44.790Z,4.43
2022-12-18T13:51:03.139Z,4.45
2022-12-18T13:54:38.193Z,4.20
2022-12-18T13:57:41.863Z,4.20
2022-12-18T14:00:44.131Z,4.90
2022-12-18T14:03:47.881Z,4.68
2022-12-18T14:06:53.409Z,5.75
2022-12-18T14:10:12.067Z,5.40
2022-12-18T14:13:33.429Z,7.30
2022-12-18T14:16:35.611Z,7.43
2022-12-18T14:19:43.363Z,6.63
2022-12-18T14:22:48.053Z,7.63
2022-12-18T14:25:49.658Z,8.32
2022-12-18T14:28:51.385Z,8.30
2022-12-18T14:32:23.716Z,9.15
2022-12-18T14:35:25.334Z,8.15
2022-12-18T14:38:40.827Z,8.88
2022-12-18T14:41:42.727Z,8.57
2022-12-18T14:45:12.978Z,8.70
2022-12-18T14:48:37.438Z,9.00
2022-12-18T14:51:40.268Z,8.18
2022-12-18T14:54:47.975Z,8.25
2022-12-18T14:57:57.519Z,7.68
2022-12-18T15:00:59.769Z,8.00
2022-12-18T15:04:03.134Z,7.82
2022-12-18T15:07:23.441Z,7.72
2022-12-18T15:10:30.679Z,8.65
2022-12-18T15:13:32.892Z,7.78
2022-12-18T15:16:37.498Z,7.72
2022-12-18T15:19:41.658Z,8.90
2022-12-18T15:22:43.253Z,8.68
2022-12-18T15:25:45.744Z,8.45
2022-12-18T15:28:53.114Z,9.35
2022-12-18T15:32:21.102Z,9.55
2022-12-18T15:35:25.442Z,10.07
2022-12-18T15:38:29.250Z,9.93
2022-12-18T15:41:34.839Z,10.75
2022-12-18T15:44:37.915Z,10.30
2022-12-18T15:47:40.319Z,9.75
2022-12-18T15:50:41.953Z,10.05
2022-12-18T15:53:44.695Z,9.70
2022-12-18T15:57:05.066Z,10.00
2022-12-18T16:00:07.815Z,9.50
2022-12-18T16:03:10.662Z,10.43
2022-12-18T16:06:12.567Z,10.40
2022-12-18T16:09:14.254Z,10.95
2022-12-18T16:12:19.409Z,9.65
2022-12-18T16:15:24.711Z,10.35
2022-12-18T16:18:26.725Z,8.93
2022-12-18T16:21:33.784Z,10.13
2022-12-18T16:24:37.238Z,9.50
2022-12-18T16:27:39.046Z,9.52
2022-12-18T16:30:41.270Z,10.32
2022-12-18T16:33:43.854Z,10.30
2022-12-18T16:36:47.757Z,10.00
2022-12-18T16:39:49.414Z,10.60
2022-12-18T16:42:51.217Z,10.65
2022-12-18T16:45:57.843Z,9.65
2022-12-18T16:49:00.676Z,9.27
2022-12-18T16:52:03.206Z,8.45
2022-12-18T16:55:05.417Z,7.90
2022-12-18T16:58:07.421Z,7.78
2022-12-18T17:01:11.209Z,7.53
2022-12-18T17:04:13.260Z,6.20
2022-12-18T17:07:16.444Z,6.70
2022-12-18T17:10:18.061Z,5.65
2022-12-18T17:13:25.472Z,5.63
2022-12-18T17:16:27.572Z,5.20
2022-12-18T17:19:29.711Z,4.57
2022-12-18T17:22:31.561Z,5.43
2022-12-18T17:25:33.218Z,4.70
2022-12-18T17:28:35.124Z,4.53
2022-12-18T17:31:36.873Z,4.63
2022-12-18T17:34:38.669Z,4.25
2022-12-18T17:37:40.585Z,4.63
2022-12-18T17:40:46.229Z,4.47
2022-12-18T17:43:57.625Z,4.43
2022-12-18T17:50:00.953Z,5.00
2022-12-18T17:53:03.335Z,4.35
2022-12-18T17:56:07.173Z,4.28
2022-12-18T17:59:09.813Z,4.85
2022-12-18T18:02:12.081Z,5.35
2022-12-18T18:05:14.161Z,5.13
2022-12-18T18:08:19.982Z,4.53
2022-12-18T18:11:42.874Z,5.00
2022-12-18T18:14:45.066Z,5.07
2022-12-18T18:17:47.134Z,5.15
2022-12-18T18:20:48.946Z,5.13
2022-12-18T18:23:50.921Z,4.78
2022-12-18T18:26:56.511Z,4.65
2022-12-18T18:29:58.548Z,5.00
2022-12-18T18:33:00.250Z,5.10
2022-12-18T18:36:02.162Z,5.05
2022-12-18T18:39:04.528Z,5.63
2022-12-18T18:42:06.516Z,5.18
2022-12-18T18:45:08.703Z,5.82
2022-12-18T18:48:14.259Z,5.50
2022-12-18T18:51:21.216Z,5.35
2022-12-18T18:54:24.523Z,5.00
2022-12-18T18:57:30.266Z,5.50
2022-12-18T19:00:32.345Z,6.28
2022-12-18T19:03:35.863Z,5.10
2022-12-18T19:06:37.613Z,6.22
2022-12-18T19:09:40.613Z,5.90
2022-12-18T19:13:00.820Z,7.20
2022-12-18T19:16:10.609Z,5.97
2022-12-18T19:19:13.502Z,5.60
2022-12-18T19:22:16.751Z,6.78
2022-12-18T19:25:18.499Z,6.15
2022-12-18T19:28:25.821Z,6.22
2022-12-18T19:31:35.576Z,6.88
2022-12-18T19:34:40.839Z,6.97
2022-12-18T19:37:43.959Z,6.97
2022-12-18T19:40:45.871Z,6.65
2022-12-18T19:43:48.481Z,5.93
2022-12-18T19:46:51.640Z,6.30
2022-12-18T19:49:53.308Z,6.85
2022-12-18T19:52:54.990Z,6.55
2022-12-18T19:55:56.648Z,6.82
2022-12-18T19:58:58.419Z,6.60
2022-12-18T20:02:00.141Z,7.25
2022-12-18T20:05:08.041Z,6.60
2022-12-18T20:08:10.945Z,6.55
2022-12-18T20:11:13.298Z,7.60
2022-12-18T20:14:23.186Z,7.25
2022-12-18T20:17:25.318Z,7.15
2022-12-18T20:20:29.832Z,6.50
2022-12-18T20:23:34.512Z,7.50
2022-12-18T20:26:38.936Z,6.95
2022-12-18T20:29:41.025Z,7.03
2022-12-18T20:32:42.792Z,7.10
2022-12-18T20:35:44.597Z,6.53
2022-12-18T20:38:46.779Z,7.20
2022-12-18T20:41:51.018Z,6.97
2022-12-18T20:44:54.101Z,7.65
2022-12-18T20:47:59.480Z,7.55
2022-12-18T20:51:06.045Z,7.47
2022-12-18T20:54:11.607Z,7.70
2022-12-18T20:57:14.176Z,7.18
2022-12-18T21:00:20.081Z,6.78
2022-12-18T21:03:23.092Z,7.88
2022-12-18T21:06:25.176Z,7.70
2022-12-18T21:09:26.841Z,7.85
2022-12-18T21:12:42.826Z,7.15
2022-12-18T21:15:54.167Z,8.05
2022-12-18T21:18:55.938Z,7.93
2022-12-18T21:21:58.291Z,7.70
2022-12-18T21:25:00.330Z,6.65
2022-12-18T21:28:02.248Z,7.28
2022-12-18T21:31:04.351Z,7.47
2022-12-18T21:34:07.266Z,8.02
2022-12-18T21:37:08.865Z,8.38
2022-12-18T21:40:11.429Z,8.32
2022-12-18T21:43:39.476Z,7.97
2022-12-18T21:46:48.948Z,7.68
2022-12-18T21:49:54.768Z,7.60
2022-12-18T21:52:56.503Z,8.50
2022-12-18T21:55:59.355Z,7.30
2022-12-18T21:59:01.019Z,8.00
2022-12-18T22:02:10.174Z,7.65
2022-12-18T22:05:11.946Z,7.78
2022-12-18T22:08:13.804Z,8.00
2022-12-18T22:11:15.696Z,8.40
2022-12-18T22:14:20.372Z,8.18
2022-12-18T22:17:22.042Z,8.63
2022-12-18T22:20:24.524Z,8.48
2022-12-18T22:23:28.653Z,8.55
2022-12-18T22:26:39.313Z,8.27
2022-12-18T22:30:00.351Z,7.63
2022-12-18T22:33:02.411Z,9.65
2022-12-18T22:36:10.383Z,7.72
2022-12-18T22:39:23.801Z,8.25
2022-12-18T22:42:25.757Z,8.20
2022-12-18T22:45:27.924Z,7.55
2022-12-18T22:48:30.364Z,8.10
2022-12-18T22:51:32.392Z,7.43
2022-12-18T22:54:34.157Z,8.18
2022-12-18T22:57:35.808Z,7.88
2022-12-18T23:00:41.556Z,7.90
2022-12-18T23:03:43.619Z,8.75
2022-12-18T23:06:45.920Z,8.38
2022-12-18T23:09:49.372Z,7.95
2022-12-18T23:12:52.435Z,8.05
2022-12-18T23:15:55.493Z,8.27
2022-12-18T23:18:57.345Z,8.48
2022-12-18T23:21:59.213Z,8.05
2022-12-18T23:25:01.233Z,7.65
2022-12-18T23:28:03.119Z,7.68
2022-12-18T23:31:20.703Z,7.32
2022-12-18T23:34:22.544Z,8.55
2022-12-18T23:37:57.058Z,9.15
2022-12-18T23:40:45.859Z,7.68
2022-12-18T23:43:50.199Z,7.95
2022-12-18T23:46:51.983Z,7.68
2022-12-18T23:49:53.802Z,8.00
2022-12-18T23:52:56.012Z,7.90
2022-12-18T23:56:02.507Z,7.75
2022-12-18T23:59:05.646Z,8.13
